sensor_id;sensor_type;location;lat;lon;timestamp;P1;durP1;ratioP1;P2;durP2;ratioP2
31262;SDS011;17892;52.080;9.006;2023-10-08T00:01:53;7.68;;;3.15;;
31262;SDS011;17892;52.080;9.006;2023-10-08T00:04:20;8.77;;;3.28;;
31262;SDS011;17892;52.080;9.006;2023-10-08T00:06:47;5.30;;;2.63;;
31262;SDS011;17892;52.080;9.006;2023-10-08T00:09:14;6.45;;;2.38;;
31262;SDS011;17892;52.080;9.006;2023-10-08T00:11:40;8.10;;;2.83;;
31262;SDS011;17892;52.080;9.006;2023-10-08T00:14:07;6.15;;;2.40;;
31262;SDS011;17892;52.080;9.006;2023-10-08T00:16:38;8.02;;;3.40;;
31262;SDS011;17892;52.080;9.006;2023-10-08T00:19:05;8.13;;;2.97;;
31262;SDS011;17892;52.080;9.006;2023-10-08T00:21:38;6.85;;;2.85;;
31262;SDS011;17892;52.080;9.006;2023-10-08T00:24:04;9.73;;;3.20;;
31262;SDS011;17892;52.080;9.006;2023-10-08T00:26:32;7.32;;;3.38;;
31262;SDS011;17892;52.080;9.006;2023-10-08T00:32:00;7.00;;;2.90;;
31262;SDS011;17892;52.080;9.006;2023-10-08T00:34:36;6.35;;;3.20;;
31262;SDS011;17892;52.080;9.006;2023-10-08T00:37:06;5.85;;;2.25;;
31262;SDS011;17892;52.080;9.006;2023-10-08T00:39:36;6.80;;;2.58;;
31262;SDS011;17892;52.080;9.006;2023-10-08T00:42:05;2.92;;;1.25;;
31262;SDS011;17892;52.080;9.006;2023-10-08T00:44:32;1.65;;;0.55;;
31262;SDS011;17892;52.080;9.006;2023-10-08T00:47:28;2.20;;;0.50;;
31262;SDS011;17892;52.080;9.006;2023-10-08T00:49:53;1.00;;;0.38;;
31262;SDS011;17892;52.080;9.006;2023-10-08T00:52:28;0.30;;;0.20;;
31262;SDS011;17892;52.080;9.006;2023-10-08T00:54:55;0.50;;;0.20;;
31262;SDS011;17892;52.080;9.006;2023-10-08T00:57:26;0.50;;;0.20;;
31262;SDS011;17892;52.080;9.006;2023-10-08T00:59:55;0.43;;;0.20;;
31262;SDS011;17892;52.080;9.006;2023-10-08T01:02:24;0.60;;;0.13;;
31262;SDS011;17892;52.080;9.006;2023-10-08T01:04:55;0.75;;;0.10;;
31262;SDS011;17892;52.080;9.006;2023-10-08T01:07:21;0.38;;;0.08;;
31262;SDS011;17892;52.080;9.006;2023-10-08T01:09:48;0.00;;;0.00;;
31262;SDS011;17892;52.080;9.006;2023-10-08T01:12:20;0.10;;;0.00;;
31262;SDS011;17892;52.080;9.006;2023-10-08T01:15:05;1.60;;;0.08;;
31262;SDS011;17892;52.080;9.006;2023-10-08T01:17:41;0.00;;;0.00;;
31262;SDS011;17892;52.080;9.006;2023-10-08T01:20:23;0.20;;;0.00;;
31262;SDS011;17892;52.080;9.006;2023-10-08T01:23:09;0.10;;;0.00;;
31262;SDS011;17892;52.080;9.006;2023-10-08T01:25:39;0.00;;;0.00;;
31262;SDS011;17892;52.080;9.006;2023-10-08T01:28:06;0.47;;;0.00;;
31262;SDS011;17892;52.080;9.006;2023-10-08T01:30:50;0.00;;;0.00;;
31262;SDS011;17892;52.080;9.006;2023-10-08T01:33:22;0.00;;;0.00;;
31262;SDS011;17892;52.080;9.006;2023-10-08T01:35:53;0.00;;;0.00;;
31262;SDS011;17892;52.080;9.006;2023-10-08T01:38:19;0.00;;;0.00;;
31262;SDS011;17892;52.080;9.006;2023-10-08T01:40:51;0.00;;;0.00;;
31262;SDS011;17892;52.080;9.006;2023-10-08T01:43:17;0.00;;;0.00;;
31262;SDS011;17892;52.080;9.006;2023-10-08T01:45:44;0.00;;;0.00;;
31262;SDS011;17892;52.080;9.006;2023-10-08T01:48:13;0.00;;;0.00;;
31262;SDS011;17892;52.080;9.006;2023-10-08T01:50:41;0.10;;;0.00;;
31262;SDS011;17892;52.080;9.006;2023-10-08T01:53:10;0.00;;;0.00;;
31262;SDS011;17892;52.080;9.006;2023-10-08T01:55:36;1.10;;;0.00;;
31262;SDS011;17892;52.080;9.006;2023-10-08T01:58:14;0.00;;;0.00;;
31262;SDS011;17892;52.080;9.006;2023-10-08T02:00:44;0.15;;;0.00;;
31262;SDS011;17892;52.080;9.006;2023-10-08T02:03:23;0.20;;;0.10;;
31262;SDS011;17892;52.080;9.006;2023-10-08T02:05:49;0.03;;;0.03;;
31262;SDS011;17892;52.080;9.006;2023-10-08T02:08:18;0.20;;;0.10;;
31262;SDS011;17892;52.080;9.006;2023-10-08T02:10:45;0.40;;;0.10;;
31262;SDS011;17892;52.080;9.006;2023-10-08T02:13:14;0.47;;;0.20;;
31262;SDS011;17892;52.080;9.006;2023-10-08T02:15:43;0.10;;;0.10;;
31262;SDS011;17892;52.080;9.006;2023-10-08T02:18:11;0.32;;;0.10;;
31262;SDS011;17892;52.080;9.006;2023-10-08T02:20:38;0.15;;;0.10;;
31262;SDS011;17892;52.080;9.006;2023-10-08T02:23:08;0.40;;;0.30;;
31262;SDS011;17892;52.080;9.006;2023-10-08T02:25:37;0.32;;;0.30;;
31262;SDS011;17892;52.080;9.006;2023-10-08T02:28:05;0.10;;;0.10;;
31262;SDS011;17892;52.080;9.006;2023-10-08T02:30:35;0.50;;;0.10;;
31262;SDS011;17892;52.080;9.006;2023-10-08T02:33:04;0.45;;;0.10;;
31262;SDS011;17892;52.080;9.006;2023-10-08T02:35:39;0.43;;;0.13;;
31262;SDS011;17892;52.080;9.006;2023-10-08T02:38:08;2.00;;;0.30;;
31262;SDS011;17892;52.080;9.006;2023-10-08T02:40:38;1.05;;;0.20;;
31262;SDS011;17892;52.080;9.006;2023-10-08T02:43:10;1.45;;;0.73;;
31262;SDS011;17892;52.080;9.006;2023-10-08T02:45:37;1.02;;;0.10;;
31262;SDS011;17892;52.080;9.006;2023-10-08T02:48:06;1.15;;;0.20;;
31262;SDS011;17892;52.080;9.006;2023-10-08T02:50:39;1.83;;;0.55;;
31262;SDS011;17892;52.080;9.006;2023-10-08T02:53:05;2.88;;;0.30;;
31262;SDS011;17892;52.080;9.006;2023-10-08T02:55:42;0.90;;;0.20;;
31262;SDS011;17892;52.080;9.006;2023-10-08T02:58:11;1.80;;;0.40;;
31262;SDS011;17892;52.080;9.006;2023-10-08T03:00:44;0.75;;;0.20;;
31262;SDS011;17892;52.080;9.006;2023-10-08T03:03:12;1.17;;;0.35;;
31262;SDS011;17892;52.080;9.006;2023-10-08T03:05:47;1.02;;;0.20;;
31262;SDS011;17892;52.080;9.006;2023-10-08T03:08:16;2.42;;;0.40;;
31262;SDS011;17892;52.080;9.006;2023-10-08T03:10:46;2.30;;;0.50;;
31262;SDS011;17892;52.080;9.006;2023-10-08T03:13:20;1.92;;;0.30;;
31262;SDS011;17892;52.080;9.006;2023-10-08T03:15:46;1.02;;;0.30;;
31262;SDS011;17892;52.080;9.006;2023-10-08T03:18:28;2.15;;;0.30;;
31262;SDS011;17892;52.080;9.006;2023-10-08T03:21:07;1.35;;;0.25;;
31262;SDS011;17892;52.080;9.006;2023-10-08T03:23:46;0.52;;;0.10;;
31262;SDS011;17892;52.080;9.006;2023-10-08T03:26:13;1.35;;;0.30;;
31262;SDS011;17892;52.080;9.006;2023-10-08T03:29:02;1.40;;;0.30;;
31262;SDS011;17892;52.080;9.006;2023-10-08T03:31:33;1.73;;;0.35;;
31262;SDS011;17892;52.080;9.006;2023-10-08T03:34:14;1.95;;;0.30;;
31262;SDS011;17892;52.080;9.006;2023-10-08T03:36:44;1.30;;;0.35;;
31262;SDS011;17892;52.080;9.006;2023-10-08T03:39:16;1.00;;;0.40;;
31262;SDS011;17892;52.080;9.006;2023-10-08T03:41:45;1.92;;;0.35;;
31262;SDS011;17892;52.080;9.006;2023-10-08T03:44:23;1.55;;;0.52;;
31262;SDS011;17892;52.080;9.006;2023-10-08T03:46:49;1.15;;;0.30;;
31262;SDS011;17892;52.080;9.006;2023-10-08T03:49:17;0.85;;;0.20;;
31262;SDS011;17892;52.080;9.006;2023-10-08T03:51:46;1.58;;;0.15;;
31262;SDS011;17892;52.080;9.006;2023-10-08T03:54:13;2.08;;;0.20;;
31262;SDS011;17892;52.080;9.006;2023-10-08T03:56:40;1.90;;;0.30;;
31262;SDS011;17892;52.080;9.006;2023-10-08T03:59:11;1.15;;;0.20;;
31262;SDS011;17892;52.080;9.006;2023-10-08T04:01:41;3.47;;;0.63;;
31262;SDS011;17892;52.080;9.006;2023-10-08T04:04:07;0.80;;;0.20;;
31262;SDS011;17892;52.080;9.006;2023-10-08T04:06:39;0.77;;;0.20;;
31262;SDS011;17892;52.080;9.006;2023-10-08T04:09:16;1.75;;;0.20;;
31262;SDS011;17892;52.080;9.006;2023-10-08T04:11:49;1.13;;;0.25;;
31262;SDS011;17892;52.080;9.006;2023-10-08T04:14:16;1.85;;;0.20;;
31262;SDS011;17892;52.080;9.006;2023-10-08T04:16:46;0.35;;;0.10;;
31262;SDS011;17892;52.080;9.006;2023-10-08T04:19:16;2.28;;;0.40;;
31262;SDS011;17892;52.080;9.006;2023-10-08T04:21:44;3.85;;;0.63;;
31262;SDS011;17892;52.080;9.006;2023-10-08T04:24:15;1.15;;;0.20;;
31262;SDS011;17892;52.080;9.006;2023-10-08T04:26:44;1.75;;;0.47;;
31262;SDS011;17892;52.080;9.006;2023-10-08T04:29:10;2.25;;;0.45;;
31262;SDS011;17892;52.080;9.006;2023-10-08T04:31:41;0.85;;;0.17;;
31262;SDS011;17892;52.080;9.006;2023-10-08T04:34:11;1.23;;;0.68;;
31262;SDS011;17892;52.080;9.006;2023-10-08T04:36:44;1.50;;;0.32;;
31262;SDS011;17892;52.080;9.006;2023-10-08T04:39:11;1.23;;;0.20;;
31262;SDS011;17892;52.080;9.006;2023-10-08T04:44:15;0.98;;;0.30;;
31262;SDS011;17892;52.080;9.006;2023-10-08T04:46:44;2.67;;;0.40;;
31262;SDS011;17892;52.080;9.006;2023-10-08T04:49:10;1.00;;;0.10;;
31262;SDS011;17892;52.080;9.006;2023-10-08T04:51:48;1.65;;;0.20;;
31262;SDS011;17892;52.080;9.006;2023-10-08T04:54:14;1.30;;;0.20;;
31262;SDS011;17892;52.080;9.006;2023-10-08T04:56:43;0.90;;;0.20;;
31262;SDS011;17892;52.080;9.006;2023-10-08T04:59:09;0.93;;;0.25;;
31262;SDS011;17892;52.080;9.006;2023-10-08T05:01:38;1.50;;;0.30;;
31262;SDS011;17892;52.080;9.006;2023-10-08T05:04:12;1.15;;;0.20;;
31262;SDS011;17892;52.080;9.006;2023-10-08T05:07:00;1.60;;;0.20;;
31262;SDS011;17892;52.080;9.006;2023-10-08T05:09:41;1.08;;;0.20;;
31262;SDS011;17892;52.080;9.006;2023-10-08T05:12:37;1.35;;;0.30;;
31262;SDS011;17892;52.080;9.006;2023-10-08T05:15:10;1.00;;;0.30;;
31262;SDS011;17892;52.080;9.006;2023-10-08T05:17:45;1.27;;;0.45;;
31262;SDS011;17892;52.080;9.006;2023-10-08T05:20:23;2.20;;;0.40;;
31262;SDS011;17892;52.080;9.006;2023-10-08T05:23:11;0.98;;;0.30;;
31262;SDS011;17892;52.080;9.006;2023-10-08T05:25:54;3.95;;;0.55;;
31262;SDS011;17892;52.080;9.006;2023-10-08T05:28:30;1.27;;;0.25;;
31262;SDS011;17892;52.080;9.006;2023-10-08T05:31:06;2.33;;;0.40;;
31262;SDS011;17892;52.080;9.006;2023-10-08T05:33:39;4.97;;;0.35;;
31262;SDS011;17892;52.080;9.006;2023-10-08T05:36:25;1.00;;;0.20;;
31262;SDS011;17892;52.080;9.006;2023-10-08T05:39:14;1.63;;;0.30;;
31262;SDS011;17892;52.080;9.006;2023-10-08T05:41:49;2.42;;;0.40;;
31262;SDS011;17892;52.080;9.006;2023-10-08T05:44:30;2.45;;;0.30;;
31262;SDS011;17892;52.080;9.006;2023-10-08T05:47:04;1.42;;;0.40;;
31262;SDS011;17892;52.080;9.006;2023-10-08T05:49:37;1.27;;;0.30;;
31262;SDS011;17892;52.080;9.006;2023-10-08T05:52:07;0.50;;;0.20;;
31262;SDS011;17892;52.080;9.006;2023-10-08T05:54:35;0.70;;;0.25;;
31262;SDS011;17892;52.080;9.006;2023-10-08T05:57:12;1.20;;;0.50;;
31262;SDS011;17892;52.080;9.006;2023-10-08T05:59:38;3.40;;;0.40;;
31262;SDS011;17892;52.080;9.006;2023-10-08T06:02:17;1.13;;;0.25;;
31262;SDS011;17892;52.080;9.006;2023-10-08T06:05:01;2.05;;;0.43;;
31262;SDS011;17892;52.080;9.006;2023-10-08T06:07:48;8.02;;;0.73;;
31262;SDS011;17892;52.080;9.006;2023-10-08T06:10:28;1.30;;;0.40;;
31262;SDS011;17892;52.080;9.006;2023-10-08T06:12:55;1.77;;;0.30;;
31262;SDS011;17892;52.080;9.006;2023-10-08T06:15:40;1.95;;;0.30;;
31262;SDS011;17892;52.080;9.006;2023-10-08T06:18:18;2.38;;;0.32;;
31262;SDS011;17892;52.080;9.006;2023-10-08T06:20:51;1.67;;;0.32;;
31262;SDS011;17892;52.080;9.006;2023-10-08T06:23:23;1.05;;;0.25;;
31262;SDS011;17892;52.080;9.006;2023-10-08T06:25:51;1.67;;;0.40;;
31262;SDS011;17892;52.080;9.006;2023-10-08T06:28:39;1.30;;;0.25;;
31262;SDS011;17892;52.080;9.006;2023-10-08T06:31:07;1.63;;;0.30;;
31262;SDS011;17892;52.080;9.006;2023-10-08T06:33:37;0.93;;;0.28;;
31262;SDS011;17892;52.080;9.006;2023-10-08T06:36:04;2.15;;;0.80;;
31262;SDS011;17892;52.080;9.006;2023-10-08T06:38:36;1.35;;;0.30;;
31262;SDS011;17892;52.080;9.006;2023-10-08T06:41:04;2.15;;;1.13;;
31262;SDS011;17892;52.080;9.006;2023-10-08T06:43:36;1.73;;;0.45;;
31262;SDS011;17892;52.080;9.006;2023-10-08T06:46:02;1.23;;;0.30;;
31262;SDS011;17892;52.080;9.006;2023-10-08T06:48:32;2.45;;;0.70;;
31262;SDS011;17892;52.080;9.006;2023-10-08T06:50:59;1.48;;;0.40;;
31262;SDS011;17892;52.080;9.006;2023-10-08T06:53:47;2.88;;;0.95;;
31262;SDS011;17892;52.080;9.006;2023-10-08T06:56:16;2.13;;;0.60;;
31262;SDS011;17892;52.080;9.006;2023-10-08T06:58:44;1.40;;;0.30;;
31262;SDS011;17892;52.080;9.006;2023-10-08T07:03:46;0.80;;;0.30;;
31262;SDS011;17892;52.080;9.006;2023-10-08T07:06:14;3.55;;;1.08;;
31262;SDS011;17892;52.080;9.006;2023-10-08T07:08:51;1.30;;;0.40;;
31262;SDS011;17892;52.080;9.006;2023-10-08T07:11:21;1.52;;;0.40;;
31262;SDS011;17892;52.080;9.006;2023-10-08T07:13:47;2.63;;;0.45;;
31262;SDS011;17892;52.080;9.006;2023-10-08T07:16:14;1.65;;;0.35;;
31262;SDS011;17892;52.080;9.006;2023-10-08T07:18:42;0.57;;;0.20;;
31262;SDS011;17892;52.080;9.006;2023-10-08T07:21:20;1.38;;;0.30;;
31262;SDS011;17892;52.080;9.006;2023-10-08T07:23:54;2.45;;;0.70;;
31262;SDS011;17892;52.080;9.006;2023-10-08T07:26:27;1.55;;;0.38;;
31262;SDS011;17892;52.080;9.006;2023-10-08T07:29:04;2.72;;;0.45;;
31262;SDS011;17892;52.080;9.006;2023-10-08T07:31:34;1.35;;;0.45;;
31262;SDS011;17892;52.080;9.006;2023-10-08T07:34:01;3.15;;;0.88;;
31262;SDS011;17892;52.080;9.006;2023-10-08T07:36:41;2.33;;;0.57;;
31262;SDS011;17892;52.080;9.006;2023-10-08T07:39:08;3.55;;;0.95;;
31262;SDS011;17892;52.080;9.006;2023-10-08T07:41:48;2.75;;;0.70;;
31262;SDS011;17892;52.080;9.006;2023-10-08T07:44:15;2.13;;;0.60;;
31262;SDS011;17892;52.080;9.006;2023-10-08T07:46:40;2.03;;;0.50;;
31262;SDS011;17892;52.080;9.006;2023-10-08T07:49:06;2.33;;;0.60;;
31262;SDS011;17892;52.080;9.006;2023-10-08T07:51:32;3.28;;;0.80;;
31262;SDS011;17892;52.080;9.006;2023-10-08T07:53:59;3.03;;;0.90;;
31262;SDS011;17892;52.080;9.006;2023-10-08T07:56:26;3.50;;;1.08;;
31262;SDS011;17892;52.080;9.006;2023-10-08T07:58:52;2.40;;;0.80;;
31262;SDS011;17892;52.080;9.006;2023-10-08T08:01:22;2.45;;;0.73;;
31262;SDS011;17892;52.080;9.006;2023-10-08T08:03:49;2.08;;;0.68;;
31262;SDS011;17892;52.080;9.006;2023-10-08T08:06:16;2.95;;;0.80;;
31262;SDS011;17892;52.080;9.006;2023-10-08T08:08:42;3.20;;;1.35;;
31262;SDS011;17892;52.080;9.006;2023-10-08T08:11:09;2.13;;;0.70;;
31262;SDS011;17892;52.080;9.006;2023-10-08T08:13:39;1.95;;;0.50;;
31262;SDS011;17892;52.080;9.006;2023-10-08T08:16:08;3.58;;;0.80;;
31262;SDS011;17892;52.080;9.006;2023-10-08T08:18:51;2.80;;;0.90;;
31262;SDS011;17892;52.080;9.006;2023-10-08T08:21:22;2.63;;;0.60;;
31262;SDS011;17892;52.080;9.006;2023-10-08T08:23:49;3.17;;;0.77;;
31262;SDS011;17892;52.080;9.006;2023-10-08T08:26:22;1.50;;;0.52;;
31262;SDS011;17892;52.080;9.006;2023-10-08T08:28:58;3.38;;;0.63;;
31262;SDS011;17892;52.080;9.006;2023-10-08T08:31:27;2.17;;;0.65;;
31262;SDS011;17892;52.080;9.006;2023-10-08T08:33:56;2.97;;;0.80;;
31262;SDS011;17892;52.080;9.006;2023-10-08T08:36:35;2.38;;;0.77;;
31262;SDS011;17892;52.080;9.006;2023-10-08T08:39:04;2.28;;;0.50;;
31262;SDS011;17892;52.080;9.006;2023-10-08T08:41:36;2.22;;;0.73;;
31262;SDS011;17892;52.080;9.006;2023-10-08T08:44:03;1.35;;;0.60;;
31262;SDS011;17892;52.080;9.006;2023-10-08T08:49:01;2.53;;;0.60;;
31262;SDS011;17892;52.080;9.006;2023-10-08T08:51:36;1.67;;;0.57;;
31262;SDS011;17892;52.080;9.006;2023-10-08T08:54:03;3.30;;;0.70;;
31262;SDS011;17892;52.080;9.006;2023-10-08T08:56:40;2.42;;;0.60;;
31262;SDS011;17892;52.080;9.006;2023-10-08T08:59:08;2.60;;;0.65;;
31262;SDS011;17892;52.080;9.006;2023-10-08T09:01:40;2.85;;;0.70;;
31262;SDS011;17892;52.080;9.006;2023-10-08T09:04:06;2.60;;;0.90;;
31262;SDS011;17892;52.080;9.006;2023-10-08T09:06:33;2.47;;;0.65;;
31262;SDS011;17892;52.080;9.006;2023-10-08T09:09:00;4.07;;;1.00;;
31262;SDS011;17892;52.080;9.006;2023-10-08T09:11:47;1.83;;;0.70;;
31262;SDS011;17892;52.080;9.006;2023-10-08T09:14:19;3.00;;;1.00;;
31262;SDS011;17892;52.080;9.006;2023-10-08T09:16:50;1.98;;;0.88;;
31262;SDS011;17892;52.080;9.006;2023-10-08T09:24:33;2.70;;;0.70;;
31262;SDS011;17892;52.080;9.006;2023-10-08T09:27:05;2.72;;;0.88;;
31262;SDS011;17892;52.080;9.006;2023-10-08T09:29:39;2.60;;;0.57;;
31262;SDS011;17892;52.080;9.006;2023-10-08T09:32:05;2.42;;;0.65;;
31262;SDS011;17892;52.080;9.006;2023-10-08T09:34:36;2.85;;;0.70;;
31262;SDS011;17892;52.080;9.006;2023-10-08T09:37:02;1.55;;;0.60;;
31262;SDS011;17892;52.080;9.006;2023-10-08T09:39:28;2.65;;;1.25;;
31262;SDS011;17892;52.080;9.006;2023-10-08T09:41:59;2.78;;;0.90;;
31262;SDS011;17892;52.080;9.006;2023-10-08T09:44:31;2.05;;;0.70;;
31262;SDS011;17892;52.080;9.006;2023-10-08T09:49:32;2.25;;;1.02;;
31262;SDS011;17892;52.080;9.006;2023-10-08T09:52:07;3.22;;;0.90;;
31262;SDS011;17892;52.080;9.006;2023-10-08T09:54:44;2.67;;;1.00;;
31262;SDS011;17892;52.080;9.006;2023-10-08T09:57:40;4.32;;;0.93;;
31262;SDS011;17892;52.080;9.006;2023-10-08T10:00:07;3.75;;;1.05;;
31262;SDS011;17892;52.080;9.006;2023-10-08T10:02:44;3.45;;;0.90;;
31262;SDS011;17892;52.080;9.006;2023-10-08T10:05:11;2.95;;;0.80;;
31262;SDS011;17892;52.080;9.006;2023-10-08T10:07:37;3.83;;;1.00;;
31262;SDS011;17892;52.080;9.006;2023-10-08T10:13:04;4.05;;;0.82;;
31262;SDS011;17892;52.080;9.006;2023-10-08T10:15:35;4.40;;;1.08;;
31262;SDS011;17892;52.080;9.006;2023-10-08T10:18:14;3.42;;;0.70;;
31262;SDS011;17892;52.080;9.006;2023-10-08T10:23:49;2.97;;;0.63;;
31262;SDS011;17892;52.080;9.006;2023-10-08T10:26:31;4.47;;;0.82;;
31262;SDS011;17892;52.080;9.006;2023-10-08T10:31:49;4.32;;;1.35;;
31262;SDS011;17892;52.080;9.006;2023-10-08T10:34:26;4.28;;;1.13;;
31262;SDS011;17892;52.080;9.006;2023-10-08T10:36:53;3.95;;;1.13;;
31262;SDS011;17892;52.080;9.006;2023-10-08T10:39:24;2.35;;;0.80;;
31262;SDS011;17892;52.080;9.006;2023-10-08T10:41:51;1.83;;;0.50;;
31262;SDS011;17892;52.080;9.006;2023-10-08T10:44:29;3.15;;;0.88;;
31262;SDS011;17892;52.080;9.006;2023-10-08T10:46:56;5.40;;;1.33;;
31262;SDS011;17892;52.080;9.006;2023-10-08T10:49:41;2.45;;;0.60;;
31262;SDS011;17892;52.080;9.006;2023-10-08T10:52:27;4.93;;;1.15;;
31262;SDS011;17892;52.080;9.006;2023-10-08T10:55:00;2.83;;;0.65;;
31262;SDS011;17892;52.080;9.006;2023-10-08T10:57:40;4.15;;;0.70;;
31262;SDS011;17892;52.080;9.006;2023-10-08T11:00:08;5.43;;;1.00;;
31262;SDS011;17892;52.080;9.006;2023-10-08T11:02:55;2.22;;;0.60;;
31262;SDS011;17892;52.080;9.006;2023-10-08T11:05:27;1.95;;;0.50;;
31262;SDS011;17892;52.080;9.006;2023-10-08T11:08:05;4.45;;;0.73;;
31262;SDS011;17892;52.080;9.006;2023-10-08T11:10:34;2.28;;;0.73;;
31262;SDS011;17892;52.080;9.006;2023-10-08T11:13:11;2.13;;;0.75;;
31262;SDS011;17892;52.080;9.006;2023-10-08T11:15:40;3.85;;;0.93;;
31262;SDS011;17892;52.080;9.006;2023-10-08T11:18:11;4.53;;;0.75;;
31262;SDS011;17892;52.080;9.006;2023-10-08T11:20:41;1.27;;;0.45;;
31262;SDS011;17892;52.080;9.006;2023-10-08T11:23:29;3.00;;;0.68;;
31262;SDS011;17892;52.080;9.006;2023-10-08T11:26:03;3.40;;;0.70;;
31262;SDS011;17892;52.080;9.006;2023-10-08T11:28:34;1.50;;;0.30;;
31262;SDS011;17892;52.080;9.006;2023-10-08T11:31:12;2.42;;;0.50;;
31262;SDS011;17892;52.080;9.006;2023-10-08T11:33:44;2.10;;;0.60;;
31262;SDS011;17892;52.080;9.006;2023-10-08T11:36:20;2.35;;;0.60;;
31262;SDS011;17892;52.080;9.006;2023-10-08T11:38:54;3.53;;;0.77;;
31262;SDS011;17892;52.080;9.006;2023-10-08T11:41:30;2.13;;;0.60;;
31262;SDS011;17892;52.080;9.006;2023-10-08T11:43:56;2.10;;;0.60;;
31262;SDS011;17892;52.080;9.006;2023-10-08T11:46:23;3.28;;;0.82;;
31262;SDS011;17892;52.080;9.006;2023-10-08T11:48:53;2.22;;;0.60;;
31262;SDS011;17892;52.080;9.006;2023-10-08T11:51:23;1.98;;;0.60;;
31262;SDS011;17892;52.080;9.006;2023-10-08T11:53:50;2.38;;;0.88;;
31262;SDS011;17892;52.080;9.006;2023-10-08T11:56:16;2.05;;;0.52;;
31262;SDS011;17892;52.080;9.006;2023-10-08T11:58:46;1.08;;;0.47;;
31262;SDS011;17892;52.080;9.006;2023-10-08T12:01:12;2.03;;;0.60;;
31262;SDS011;17892;52.080;9.006;2023-10-08T12:03:42;2.03;;;0.90;;
31262;SDS011;17892;52.080;9.006;2023-10-08T12:06:15;1.85;;;0.50;;
31262;SDS011;17892;52.080;9.006;2023-10-08T12:11:11;2.50;;;0.90;;
31262;SDS011;17892;52.080;9.006;2023-10-08T12:13:39;2.60;;;0.82;;
31262;SDS011;17892;52.080;9.006;2023-10-08T12:16:12;2.42;;;0.70;;
31262;SDS011;17892;52.080;9.006;2023-10-08T12:18:48;2.63;;;0.80;;
31262;SDS011;17892;52.080;9.006;2023-10-08T12:21:21;2.00;;;0.50;;
31262;SDS011;17892;52.080;9.006;2023-10-08T12:23:47;3.35;;;0.47;;
31262;SDS011;17892;52.080;9.006;2023-10-08T12:26:14;1.77;;;0.60;;
31262;SDS011;17892;52.080;9.006;2023-10-08T12:28:46;1.73;;;0.70;;
31262;SDS011;17892;52.080;9.006;2023-10-08T12:31:17;3.13;;;0.68;;
31262;SDS011;17892;52.080;9.006;2023-10-08T12:33:49;1.77;;;0.55;;
31262;SDS011;17892;52.080;9.006;2023-10-08T12:36:19;2.67;;;0.90;;
31262;SDS011;17892;52.080;9.006;2023-10-08T12:38:48;1.88;;;0.60;;
31262;SDS011;17892;52.080;9.006;2023-10-08T12:41:15;2.95;;;0.80;;
31262;SDS011;17892;52.080;9.006;2023-10-08T12:43:44;2.47;;;0.70;;
31262;SDS011;17892;52.080;9.006;2023-10-08T12:46:13;2.00;;;0.80;;
31262;SDS011;17892;52.080;9.006;2023-10-08T12:48:49;1.77;;;0.60;;
31262;SDS011;17892;52.080;9.006;2023-10-08T12:51:20;2.17;;;0.70;;
31262;SDS011;17892;52.080;9.006;2023-10-08T12:53:50;2.08;;;0.70;;
31262;SDS011;17892;52.080;9.006;2023-10-08T12:56:23;3.58;;;0.75;;
31262;SDS011;17892;52.080;9.006;2023-10-08T12:59:09;2.30;;;0.80;;
31262;SDS011;17892;52.080;9.006;2023-10-08T13:01:45;2.47;;;0.60;;
31262;SDS011;17892;52.080;9.006;2023-10-08T13:04:15;4.65;;;1.05;;
31262;SDS011;17892;52.080;9.006;2023-10-08T13:06:55;3.47;;;0.80;;
31262;SDS011;17892;52.080;9.006;2023-10-08T13:09:26;3.78;;;0.73;;
31262;SDS011;17892;52.080;9.006;2023-10-08T13:11:52;3.05;;;0.70;;
31262;SDS011;17892;52.080;9.006;2023-10-08T13:14:18;2.97;;;0.73;;
31262;SDS011;17892;52.080;9.006;2023-10-08T13:16:44;4.07;;;0.80;;
31262;SDS011;17892;52.080;9.006;2023-10-08T13:19:10;2.08;;;0.77;;
31262;SDS011;17892;52.080;9.006;2023-10-08T13:21:36;3.00;;;0.73;;
31262;SDS011;17892;52.080;9.006;2023-10-08T13:24:02;1.63;;;0.40;;
31262;SDS011;17892;52.080;9.006;2023-10-08T13:26:30;2.83;;;0.60;;
31262;SDS011;17892;52.080;9.006;2023-10-08T13:28:59;2.15;;;0.57;;
31262;SDS011;17892;52.080;9.006;2023-10-08T13:31:26;2.00;;;0.70;;
31262;SDS011;17892;52.080;9.006;2023-10-08T13:33:53;1.85;;;0.60;;
31262;SDS011;17892;52.080;9.006;2023-10-08T13:36:22;1.73;;;0.60;;
31262;SDS011;17892;52.080;9.006;2023-10-08T13:38:49;2.88;;;0.68;;
31262;SDS011;17892;52.080;9.006;2023-10-08T13:41:15;2.00;;;0.40;;
31262;SDS011;17892;52.080;9.006;2023-10-08T13:43:41;2.25;;;0.57;;
31262;SDS011;17892;52.080;9.006;2023-10-08T13:46:10;2.60;;;0.85;;
31262;SDS011;17892;52.080;9.006;2023-10-08T13:48:43;3.33;;;0.80;;
31262;SDS011;17892;52.080;9.006;2023-10-08T13:51:14;2.97;;;0.57;;
31262;SDS011;17892;52.080;9.006;2023-10-08T13:53:49;1.88;;;0.50;;
31262;SDS011;17892;52.080;9.006;2023-10-08T13:56:24;3.50;;;0.60;;
31262;SDS011;17892;52.080;9.006;2023-10-08T13:58:55;2.38;;;0.50;;
31262;SDS011;17892;52.080;9.006;2023-10-08T14:01:29;3.45;;;0.63;;
31262;SDS011;17892;52.080;9.006;2023-10-08T14:03:58;2.65;;;0.60;;
31262;SDS011;17892;52.080;9.006;2023-10-08T14:06:30;2.42;;;0.82;;
31262;SDS011;17892;52.080;9.006;2023-10-08T14:08:57;1.42;;;0.47;;
31262;SDS011;17892;52.080;9.006;2023-10-08T14:11:25;2.75;;;0.60;;
31262;SDS011;17892;52.080;9.006;2023-10-08T14:13:55;3.10;;;0.50;;
31262;SDS011;17892;52.080;9.006;2023-10-08T14:16:23;3.45;;;0.70;;
31262;SDS011;17892;52.080;9.006;2023-10-08T14:18:53;2.20;;;0.50;;
31262;SDS011;17892;52.080;9.006;2023-10-08T14:21:21;3.88;;;0.50;;
31262;SDS011;17892;52.080;9.006;2023-10-08T14:23:55;1.83;;;0.50;;
31262;SDS011;17892;52.080;9.006;2023-10-08T14:26:27;1.95;;;0.40;;
31262;SDS011;17892;52.080;9.006;2023-10-08T14:29:00;2.78;;;0.88;;
31262;SDS011;17892;52.080;9.006;2023-10-08T14:31:33;2.10;;;0.47;;
31262;SDS011;17892;52.080;9.006;2023-10-08T14:34:03;1.38;;;0.45;;
31262;SDS011;17892;52.080;9.006;2023-10-08T14:36:31;1.45;;;0.30;;
31262;SDS011;17892;52.080;9.006;2023-10-08T14:39:16;2.95;;;0.57;;
31262;SDS011;17892;52.080;9.006;2023-10-08T14:42:02;2.13;;;0.63;;
31262;SDS011;17892;52.080;9.006;2023-10-08T14:44:46;2.45;;;0.45;;
31262;SDS011;17892;52.080;9.006;2023-10-08T14:47:13;1.40;;;0.43;;
31262;SDS011;17892;52.080;9.006;2023-10-08T14:49:38;2.22;;;0.50;;
31262;SDS011;17892;52.080;9.006;2023-10-08T14:52:04;2.25;;;0.70;;
31262;SDS011;17892;52.080;9.006;2023-10-08T14:54:30;2.03;;;0.60;;
31262;SDS011;17892;52.080;9.006;2023-10-08T14:56:58;2.80;;;0.43;;
31262;SDS011;17892;52.080;9.006;2023-10-08T14:59:24;1.13;;;0.40;;
31262;SDS011;17892;52.080;9.006;2023-10-08T15:01:53;2.15;;;0.57;;
31262;SDS011;17892;52.080;9.006;2023-10-08T15:04:20;1.42;;;0.43;;
31262;SDS011;17892;52.080;9.006;2023-10-08T15:06:46;3.13;;;0.85;;
31262;SDS011;17892;52.080;9.006;2023-10-08T15:09:13;2.75;;;0.40;;
31262;SDS011;17892;52.080;9.006;2023-10-08T15:11:46;1.55;;;0.40;;
31262;SDS011;17892;52.080;9.006;2023-10-08T15:14:13;1.83;;;0.40;;
31262;SDS011;17892;52.080;9.006;2023-10-08T15:16:40;2.13;;;0.45;;
31262;SDS011;17892;52.080;9.006;2023-10-08T15:19:08;3.00;;;0.60;;
31262;SDS011;17892;52.080;9.006;2023-10-08T15:21:37;2.00;;;0.50;;
31262;SDS011;17892;52.080;9.006;2023-10-08T15:24:07;2.55;;;0.40;;
31262;SDS011;17892;52.080;9.006;2023-10-08T15:26:37;2.70;;;0.60;;
31262;SDS011;17892;52.080;9.006;2023-10-08T15:29:04;2.17;;;0.60;;
31262;SDS011;17892;52.080;9.006;2023-10-08T15:31:30;2.55;;;0.47;;
31262;SDS011;17892;52.080;9.006;2023-10-08T15:33:56;1.63;;;0.50;;
31262;SDS011;17892;52.080;9.006;2023-10-08T15:36:22;1.52;;;0.45;;
31262;SDS011;17892;52.080;9.006;2023-10-08T15:38:48;1.98;;;0.50;;
31262;SDS011;17892;52.080;9.006;2023-10-08T15:41:13;1.15;;;0.32;;
31262;SDS011;17892;52.080;9.006;2023-10-08T15:43:41;1.33;;;0.38;;